Time;durP1;ratioP1;P1;durP2;ratioP2;P2;SDS_P1;SDS_P2;PMS_P1;PMS_P2;Temp;Humidity;BMP_temperature;BMP_pressure;BME280_temperature;BME280_humidity;BME280_pressure;Samples;Min_cycle;Max_cycle;Signal;HPM_P1;HPM_P2
2022/05/24 00:00:46;;;;;;;3.10;1.40;;;26.20;53.70;;;;;;5115680;28;20414;-85
2022/05/24 00:03:23;;;;;;;;;;;;;;;;;;;;;
2022/05/24 00:05:49;;;;;;;3.10;2.70;;;26.20;53.70;;;;;;5133365;28;20512;-85
2022/05/24 00:08:18;;;;;;;1.50;1.40;;;26.20;53.80;;;;;;5114478;28;20467;-85
2022/05/24 00:10:46;;;;;;;1.67;1.53;;;26.20;53.80;;;;;;5132728;28;20408;-85
2022/05/24 00:13:20;;;;;;;1.50;1.40;;;26.20;53.80;;;;;;5115134;28;20444;-85
2022/05/24 00:15:48;;;;;;;2.03;1.60;;;26.20;53.80;;;;;;5132513;28;20418;-85
2022/05/24 00:18:29;;;;;;;2.00;1.50;;;26.10;53.70;;;;;;5132663;28;20411;-86
2022/05/24 00:20:57;;;;;;;1.30;1.20;;;26.20;53.80;;;;;;5132966;28;20462;-86
2022/05/24 00:23:30;;;;;;;1.30;1.20;;;26.20;54.40;;;;;;5133275;28;20403;-86
2022/05/24 00:26:02;;;;;;;1.73;1.50;;;26.10;53.70;;;;;;5114987;28;20486;-86
2022/05/24 00:28:37;;;;;;;1.60;1.50;;;26.10;53.70;;;;;;5133126;28;20464;-86
2022/05/24 00:31:23;;;;;;;1.60;1.20;;;26.20;53.80;;;;;;5133106;28;20407;-86
2022/05/24 00:33:56;;;;;;;2.07;1.40;;;26.10;53.70;;;;;;5095108;28;20434;-86
2022/05/24 00:36:25;;;;;;;1.30;1.20;;;26.10;53.70;;;;;;5115348;27;20425;-86
2022/05/24 00:38:55;;;;;;;1.60;1.50;;;26.10;53.70;;;;;;5138514;27;20520;-86
2022/05/24 00:41:36;;;;;;;1.70;1.20;;;26.10;53.70;;;;;;5127092;28;20446;-86
2022/05/24 00:44:11;;;;;;;2.30;1.47;;;26.10;53.70;;;;;;5136281;28;20395;-85
2022/05/24 00:46:56;;;;;;;1.43;1.30;;;26.10;53.70;;;;;;5136636;28;20395;-85
2022/05/24 00:49:30;;;;;;;1.80;1.43;;;26.10;53.70;;;;;;5117965;28;20461;-85
2022/05/24 00:52:08;;;;;;;3.20;1.50;;;26.10;53.70;;;;;;5149115;27;20410;-85
2022/05/24 00:54:44;;;;;;;2.23;1.30;;;26.10;53.70;;;;;;5156490;27;20402;-85
2022/05/24 00:57:45;;;;;;;1.50;1.40;;;26.10;53.70;;;;;;5137033;27;20437;-85
2022/05/24 01:00:23;;;;;;;2.10;1.30;;;26.10;53.70;;;;;;5117255;27;20417;-85
2022/05/24 01:02:51;;;;;;;1.50;1.30;;;26.10;53.80;;;;;;5111823;28;20438;-86
2022/05/24 01:05:24;;;;;;;2.43;1.40;;;26.10;53.80;;;;;;5146042;27;20440;-86
2022/05/24 01:07:50;;;;;;;1.50;1.30;;;26.10;53.80;;;;;;5145728;27;20399;-86
2022/05/24 01:10:32;;;;;;;2.90;1.73;;;26.10;53.70;;;;;;5139431;27;20452;-86
2022/05/24 01:13:31;;;;;;;;;;;;;;;;;;;;;
2022/05/24 01:15:59;;;;;;;1.63;1.30;;;26.10;53.80;;;;;;5142794;27;20437;-86
2022/05/24 01:18:43;;;;;;;2.43;1.30;;;26.10;53.80;;;;;;5148602;27;20430;-86
2022/05/24 01:21:14;;;;;;;1.70;1.37;;;26.10;53.80;;;;;;5133010;27;20410;-85
2022/05/24 01:24:28;;;;;;;2.20;1.40;;;26.10;53.80;;;;;;5120075;28;20444;-85
2022/05/24 01:26:57;;;;;;;1.30;1.20;;;26.10;53.80;;;;;;5124447;27;20459;-85
2022/05/24 01:29:26;;;;;;;2.03;1.40;;;26.10;53.80;;;;;;5119896;28;20434;-86
2022/05/24 01:37:39;;;;;;;2.13;1.40;;;26.10;53.80;;;;;;5145178;27;20475;-86
2022/05/24 01:40:11;;;;;;;1.60;1.50;;;26.10;53.80;;;;;;5128115;27;20499;-86
2022/05/24 01:42:40;;;;;;;1.83;1.50;;;26.10;53.80;;;;;;5129429;27;20421;-86
2022/05/24 01:45:08;;;;;;;2.23;1.30;;;26.10;53.80;;;;;;5137512;27;20452;-86
2022/05/24 01:47:38;;;;;;;1.40;1.20;;;26.10;53.80;;;;;;5117451;28;20415;-86
2022/05/24 01:50:08;;;;;;;1.60;1.30;;;26.10;53.80;;;;;;5141571;27;20439;-86
2022/05/24 01:52:39;;;;;;;2.03;1.83;;;26.10;53.80;;;;;;5125441;28;20442;-86
2022/05/24 01:55:17;;;;;;;1.77;1.27;;;26.10;53.80;;;;;;5123641;27;20518;-86
2022/05/24 01:57:51;;;;;;;2.20;1.30;;;26.10;53.80;;;;;;5118110;28;20427;-85
2022/05/24 02:00:20;;;;;;;2.27;1.40;;;26.10;53.80;;;;;;5098966;27;20430;-86
2022/05/24 02:02:46;;;;;;;1.60;1.40;;;26.10;53.80;;;;;;5136671;27;20413;-86
2022/05/24 02:05:27;;;;;;;2.30;1.90;;;26.10;53.80;;;;;;5154843;27;20398;-86
2022/05/24 02:08:09;;;;;;;2.37;1.60;;;26.10;53.90;;;;;;5138168;27;20503;-86
2022/05/24 02:10:53;;;;;;;1.87;1.57;;;26.10;53.80;;;;;;5137468;27;20398;-86
2022/05/24 02:13:30;;;;;;;2.07;1.50;;;26.10;53.90;;;;;;5137447;27;20446;-86
2022/05/24 02:16:02;;;;;;;1.77;1.57;;;26.10;53.90;;;;;;5135561;28;20403;-86
2022/05/24 02:18:30;;;;;;;2.30;1.30;;;26.10;53.90;;;;;;5116876;28;20414;-86
2022/05/24 02:20:58;;;;;;;2.80;2.27;;;26.10;53.90;;;;;;5134673;28;20430;-86
2022/05/24 02:23:32;;;;;;;2.67;1.60;;;26.10;53.90;;;;;;5100203;28;20430;-86
2022/05/24 02:26:00;;;;;;;1.60;1.50;;;26.10;53.90;;;;;;5117544;28;20379;-85
2022/05/24 02:28:29;;;;;;;2.20;1.67;;;26.10;53.90;;;;;;5116336;28;20405;-85
2022/05/24 02:30:59;;;;;;;2.17;1.83;;;26.10;53.90;;;;;;5134447;28;20896;-86
2022/05/24 02:33:25;;;;;;;1.23;1.13;;;26.10;53.90;;;;;;5134202;28;20371;-86
2022/05/24 02:36:19;;;;;;;2.20;1.50;;;26.00;53.80;;;;;;5116711;28;20437;-86
2022/05/24 02:38:45;;;;;;;2.17;1.40;;;26.10;53.90;;;;;;5116800;28;20177;-86
2022/05/24 02:41:36;;;;;;;1.70;1.33;;;26.10;53.90;;;;;;5134444;28;20402;-86
2022/05/24 02:44:11;;;;;;;2.37;1.50;;;26.10;53.90;;;;;;5116990;28;20411;-86
2022/05/24 02:46:41;;;;;;;1.53;1.43;;;26.10;53.90;;;;;;5115589;28;20415;-85
2022/05/24 02:49:09;;;;;;;2.33;1.57;;;26.10;53.90;;;;;;5116874;28;20454;-85
2022/05/24 02:51:43;;;;;;;1.83;1.53;;;26.10;53.90;;;;;;5116676;28;20411;-85
2022/05/24 02:54:09;;;;;;;1.97;1.50;;;26.10;53.90;;;;;;5112696;27;20485;-85
2022/05/24 02:56:36;;;;;;;1.70;1.40;;;26.10;53.90;;;;;;5115014;28;20431;-85
2022/05/24 02:59:05;;;;;;;1.50;1.40;;;26.10;53.90;;;;;;5133850;28;20323;-85
2022/05/24 03:01:31;;;;;;;1.77;1.27;;;26.10;53.90;;;;;;5149728;27;20502;-86
2022/05/24 03:04:01;;;;;;;2.50;1.50;;;26.10;54.40;;;;;;5149914;27;20440;-85
2022/05/24 03:09:33;;;;;;;1.50;1.40;;;26.10;53.90;;;;;;5116196;28;20403;-86
2022/05/24 03:14:48;;;;;;;2.10;1.70;;;26.10;53.90;;;;;;5133859;28;20469;-85
2022/05/24 03:17:15;;;;;;;1.50;1.20;;;26.10;53.90;;;;;;5098772;28;20450;-85
2022/05/24 03:19:44;;;;;;;1.60;1.30;;;26.10;53.90;;;;;;5131594;28;20435;-85
2022/05/24 03:22:18;;;;;;;1.50;1.30;;;26.10;53.90;;;;;;5132301;28;20482;-85
2022/05/24 03:24:55;;;;;;;1.80;1.60;;;26.10;53.90;;;;;;5114894;28;20454;-85
2022/05/24 03:27:25;;;;;;;1.33;1.20;;;26.10;53.90;;;;;;5147939;28;20438;-86
2022/05/24 03:29:51;;;;;;;2.70;1.37;;;26.10;53.90;;;;;;5115605;28;20493;-85
2022/05/24 03:32:21;;;;;;;1.70;1.60;;;26.10;53.90;;;;;;5096153;28;20426;-86
2022/05/24 03:34:52;;;;;;;2.23;1.40;;;26.10;53.90;;;;;;5112789;28;20419;-84
2022/05/24 03:37:26;;;;;;;1.33;1.10;;;26.10;53.90;;;;;;5112254;28;20395;-85
2022/05/24 03:39:56;;;;;;;1.70;1.40;;;26.10;53.90;;;;;;5111674;28;20425;-85
2022/05/24 03:42:24;;;;;;;1.73;1.47;;;26.10;53.90;;;;;;5112472;28;20445;-85
2022/05/24 03:44:52;;;;;;;1.57;1.47;;;26.10;53.90;;;;;;5111852;28;20422;-85
2022/05/24 03:47:19;;;;;;;1.80;1.60;;;26.10;53.90;;;;;;5129054;28;20406;-85
2022/05/24 03:49:50;;;;;;;3.23;1.70;;;26.10;53.90;;;;;;5111707;28;20485;-85
2022/05/24 03:52:18;;;;;;;4.13;1.60;;;26.10;53.90;;;;;;5119040;28;20421;-85
2022/05/24 03:54:45;;;;;;;1.77;1.30;;;26.10;53.90;;;;;;5136889;28;20531;-85
2022/05/24 03:59:55;;;;;;;1.80;1.20;;;26.10;53.90;;;;;;5130019;28;20437;-85
2022/05/24 04:02:21;;;;;;;3.00;1.57;;;26.10;53.90;;;;;;5112162;28;20418;-86
2022/05/24 04:04:47;;;;;;;1.77;1.47;;;26.10;54.00;;;;;;5129334;28;20165;-86
2022/05/24 04:07:13;;;;;;;2.30;1.60;;;26.10;53.90;;;;;;5130105;28;20411;-84
2022/05/24 04:09:39;;;;;;;1.50;1.30;;;26.10;53.90;;;;;;5129973;28;20192;-85
2022/05/24 04:12:05;;;;;;;1.43;1.30;;;26.10;53.90;;;;;;5131778;28;20180;-85
2022/05/24 04:14:33;;;;;;;2.00;1.43;;;26.10;53.90;;;;;;5133202;28;20173;-85
2022/05/24 04:16:59;;;;;;;1.93;1.50;;;26.10;53.90;;;;;;5114404;28;20819;-84
2022/05/24 04:19:25;;;;;;;2.10;2.00;;;26.10;53.90;;;;;;5133466;28;20453;-84
2022/05/24 04:21:51;;;;;;;1.83;1.37;;;26.10;53.90;;;;;;5115146;28;20434;-84
2022/05/24 04:24:17;;;;;;;1.67;1.10;;;26.10;53.90;;;;;;5132619;28;20411;-85
2022/05/24 04:26:42;;;;;;;4.37;1.37;;;26.00;53.80;;;;;;5114568;28;20422;-85
2022/05/24 04:32:31;;;;;;;1.63;1.43;;;26.10;53.90;;;;;;5132690;28;20175;-86
2022/05/24 04:34:57;;;;;;;1.30;1.20;;;26.00;53.90;;;;;;5115044;28;20403;-85
2022/05/24 04:43:30;;;;;;;1.43;1.20;;;26.00;53.90;;;;;;5132408;28;20773;-85
2022/05/24 04:45:56;;;;;;;1.37;1.20;;;26.00;53.90;;;;;;5114599;28;20501;-85
2022/05/24 04:48:22;;;;;;;1.60;1.30;;;26.00;53.90;;;;;;5113288;28;20414;-86
2022/05/24 04:50:54;;;;;;;1.70;1.30;;;26.00;54.00;;;;;;5113495;28;20421;-85
2022/05/24 04:53:20;;;;;;;1.17;1.07;;;26.00;53.90;;;;;;5114942;28;20418;-85
2022/05/24 04:55:48;;;;;;;1.40;1.20;;;26.10;53.90;;;;;;5114583;28;20436;-84
2022/05/24 04:58:17;;;;;;;1.50;1.30;;;26.10;53.90;;;;;;5114582;28;20435;-86
2022/05/24 05:00:44;;;;;;;1.83;1.63;;;26.10;53.90;;;;;;5132704;28;20403;-85
2022/05/24 05:03:13;;;;;;;1.87;1.30;;;26.00;53.80;;;;;;5114291;28;20479;-85
2022/05/24 05:05:39;;;;;;;1.50;1.40;;;26.10;53.90;;;;;;5114461;28;20407;-85
2022/05/24 05:08:07;;;;;;;1.63;1.10;;;26.10;53.90;;;;;;5132327;28;20399;-85
2022/05/24 05:10:37;;;;;;;1.57;1.47;;;26.10;53.90;;;;;;5113975;28;20975;-85
2022/05/24 05:13:04;;;;;;;1.20;1.03;;;26.10;53.90;;;;;;5113920;28;20912;-85
2022/05/24 05:15:30;;;;;;;1.43;1.33;;;26.10;53.90;;;;;;5113671;28;20464;-85
2022/05/24 05:18:08;;;;;;;1.63;1.27;;;26.10;53.90;;;;;;5114080;28;20415;-85
2022/05/24 05:20:41;;;;;;;1.83;1.47;;;26.10;53.90;;;;;;5131971;28;20418;-85
2022/05/24 05:23:13;;;;;;;1.50;1.40;;;26.10;53.90;;;;;;5112748;28;20989;-85
2022/05/24 05:25:42;;;;;;;2.23;1.20;;;26.10;53.90;;;;;;5113698;28;20422;-85
2022/05/24 05:28:09;;;;;;;1.87;1.20;;;26.10;53.90;;;;;;5113908;28;20422;-85
2022/05/24 05:33:19;;;;;;;2.10;1.37;;;26.10;53.90;;;;;;5116810;28;20818;-85
2022/05/24 05:35:46;;;;;;;4.07;1.20;;;26.10;53.90;;;;;;5131483;28;20414;-85
2022/05/24 05:38:13;;;;;;;2.43;1.50;;;26.10;53.90;;;;;;5113625;28;20188;-85
2022/05/24 05:40:40;;;;;;;1.40;1.17;;;26.10;53.90;;;;;;5114222;28;20423;-85
2022/05/24 05:43:05;;;;;;;1.80;1.10;;;26.10;53.90;;;;;;5131606;28;20411;-85
2022/05/24 05:45:31;;;;;;;2.17;1.40;;;26.10;53.90;;;;;;5131854;28;20462;-85
2022/05/24 05:47:58;;;;;;;1.67;1.50;;;26.10;53.90;;;;;;5131767;28;20268;-85
2022/05/24 05:50:25;;;;;;;1.40;1.30;;;26.10;53.90;;;;;;5113458;28;20208;-85
2022/05/24 05:52:50;;;;;;;2.60;2.33;;;26.10;54.00;;;;;;5113316;28;20422;-85
2022/05/24 05:55:19;;;;;;;1.60;1.07;;;26.10;54.00;;;;;;5131091;28;20436;-85
2022/05/24 05:57:45;;;;;;;1.60;1.50;;;26.10;54.00;;;;;;5112794;28;20192;-85
2022/05/24 06:00:12;;;;;;;1.40;1.13;;;26.10;54.00;;;;;;5112804;28;20447;-85
2022/05/24 06:02:38;;;;;;;1.43;1.30;;;26.10;54.00;;;;;;5112937;28;20445;-85
2022/05/24 06:05:05;;;;;;;3.33;1.70;;;26.10;54.00;;;;;;5113327;28;20536;-85
2022/05/24 06:07:31;;;;;;;2.20;1.27;;;26.10;54.00;;;;;;5131380;28;20493;-85
2022/05/24 06:09:57;;;;;;;2.13;1.40;;;26.10;54.00;;;;;;5112559;28;20459;-85
2022/05/24 06:12:57;;;;;;;1.40;1.30;;;26.10;53.90;;;;;;5130652;28;20893;-85
2022/05/24 06:15:27;;;;;;;2.20;1.70;;;26.10;53.90;;;;;;5130569;28;20259;-85
2022/05/24 06:17:59;;;;;;;1.90;1.20;;;26.10;54.00;;;;;;5112701;28;20406;-85
2022/05/24 06:20:28;;;;;;;2.60;1.37;;;26.10;54.00;;;;;;5113460;28;20426;-85
2022/05/24 06:22:57;;;;;;;1.70;1.30;;;26.10;54.00;;;;;;5130848;28;20432;-85
2022/05/24 06:25:28;;;;;;;1.20;1.10;;;26.10;54.00;;;;;;5131309;28;20418;-85
2022/05/24 06:27:54;;;;;;;1.77;1.30;;;26.10;53.90;;;;;;5111973;28;20419;-85
2022/05/24 06:30:23;;;;;;;1.53;1.17;;;26.10;53.90;;;;;;5112099;28;20481;-85
2022/05/24 06:32:50;;;;;;;1.93;1.20;;;26.20;54.00;;;;;;5111968;28;20429;-85
2022/05/24 06:35:17;;;;;;;1.43;1.27;;;26.20;54.00;;;;;;5112056;28;20411;-85
2022/05/24 06:37:43;;;;;;;2.17;1.53;;;26.10;53.90;;;;;;5112406;28;20920;-85
2022/05/24 06:40:12;;;;;;;2.60;1.30;;;26.20;54.00;;;;;;5112644;28;20433;-85
2022/05/24 06:42:38;;;;;;;3.27;1.43;;;26.20;54.00;;;;;;5112066;28;20592;-85
2022/05/24 06:45:05;;;;;;;2.37;1.20;;;26.20;54.00;;;;;;5110619;28;20427;-85
2022/05/24 06:47:32;;;;;;;1.97;1.47;;;26.20;54.00;;;;;;5110524;28;20192;-85
2022/05/24 06:49:58;;;;;;;1.60;1.40;;;26.20;54.00;;;;;;5128518;28;20458;-84
2022/05/24 06:52:24;;;;;;;1.87;1.20;;;26.20;54.00;;;;;;5111892;28;20478;-85
2022/05/24 06:54:51;;;;;;;1.77;1.20;;;26.10;53.90;;;;;;5110295;28;20444;-85
2022/05/24 06:57:17;;;;;;;1.40;1.30;;;26.20;54.00;;;;;;5109189;28;20457;-85
2022/05/24 07:02:29;;;;;;;2.10;1.30;;;26.20;54.00;;;;;;5110431;28;20187;-85
2022/05/24 07:05:04;;;;;;;2.67;1.20;;;26.20;54.00;;;;;;5109742;28;20427;-85
2022/05/24 07:07:33;;;;;;;1.30;1.20;;;26.20;54.00;;;;;;5108421;28;20425;-85
2022/05/24 07:09:59;;;;;;;1.73;1.43;;;26.20;54.00;;;;;;5112372;28;20463;-85
2022/05/24 07:12:26;;;;;;;2.50;1.70;;;26.20;54.00;;;;;;5129883;28;20399;-85
2022/05/24 07:14:53;;;;;;;2.60;1.70;;;26.20;54.00;;;;;;5146282;27;20411;-85
2022/05/24 07:17:20;;;;;;;1.60;1.40;;;26.20;54.00;;;;;;5112066;28;20915;-85
2022/05/24 07:19:47;;;;;;;1.50;1.40;;;26.20;54.00;;;;;;5112049;28;20430;-85
2022/05/24 07:22:14;;;;;;;1.60;1.50;;;26.20;54.00;;;;;;5112480;28;20839;-85
2022/05/24 07:24:40;;;;;;;1.27;1.10;;;26.20;54.00;;;;;;5129541;28;20416;-85
2022/05/24 07:27:10;;;;;;;1.50;1.10;;;26.20;54.00;;;;;;5130003;28;20453;-85
2022/05/24 07:29:37;;;;;;;1.50;1.20;;;26.20;54.00;;;;;;5111519;28;20454;-85
2022/05/24 07:32:06;;;;;;;1.93;1.30;;;26.20;54.00;;;;;;5129973;28;20399;-85
2022/05/24 07:34:33;;;;;;;1.40;1.30;;;26.20;54.00;;;;;;5130035;28;20406;-85
2022/05/24 07:37:02;;;;;;;1.17;1.07;;;26.20;54.00;;;;;;5111492;28;20449;-85
2022/05/24 07:39:28;;;;;;;1.83;1.50;;;26.20;54.00;;;;;;5129350;28;20403;-85
2022/05/24 07:47:27;;;;;;;1.63;1.23;;;26.20;54.00;;;;;;5111991;28;20414;-85
2022/05/24 07:49:53;;;;;;;1.40;1.27;;;26.20;54.00;;;;;;5113678;28;20458;-85
2022/05/24 07:52:21;;;;;;;2.10;1.60;;;26.20;54.00;;;;;;5108474;28;20415;-85
2022/05/24 07:54:47;;;;;;;1.40;1.20;;;26.20;54.00;;;;;;5115344;28;20172;-85
2022/05/24 07:57:12;;;;;;;1.83;1.43;;;26.20;54.00;;;;;;5115366;28;20485;-85
2022/05/24 07:59:43;;;;;;;1.37;1.27;;;26.20;54.00;;;;;;5133992;28;20192;-85
2022/05/24 08:02:10;;;;;;;1.40;1.17;;;26.20;54.00;;;;;;5116384;28;20157;-85
2022/05/24 08:04:36;;;;;;;1.33;1.10;;;26.20;54.00;;;;;;5115738;28;20504;-85
2022/05/24 08:07:02;;;;;;;1.50;1.40;;;26.20;54.00;;;;;;5145702;27;20991;-85
2022/05/24 08:09:28;;;;;;;1.70;1.30;;;26.20;54.00;;;;;;5115283;28;20200;-85
2022/05/24 08:11:54;;;;;;;1.60;1.17;;;26.20;54.00;;;;;;5107735;28;20474;-85
2022/05/24 08:14:19;;;;;;;3.00;1.20;;;26.20;54.00;;;;;;5111850;28;20724;-85
2022/05/24 08:16:45;;;;;;;1.77;1.10;;;26.20;54.00;;;;;;5109369;28;20173;-85
2022/05/24 08:25:56;;;;;;;2.20;1.10;;;26.20;54.10;;;;;;5135113;27;20393;-85
2022/05/24 08:28:23;;;;;;;1.50;1.20;;;26.10;54.10;;;;;;5132614;27;20439;-85
2022/05/24 08:30:50;;;;;;;1.30;1.20;;;26.10;54.10;;;;;;5114670;28;20415;-85
2022/05/24 08:33:17;;;;;;;1.90;1.50;;;26.10;54.20;;;;;;5132720;27;20418;-85
2022/05/24 08:35:45;;;;;;;1.20;1.00;;;26.10;54.10;;;;;;5133753;27;20414;-85
2022/05/24 08:38:12;;;;;;;1.43;1.33;;;26.10;54.10;;;;;;5133861;27;20437;-85
2022/05/24 08:40:39;;;;;;;1.33;1.00;;;26.10;54.10;;;;;;5115080;28;20450;-85
2022/05/24 08:43:23;;;;;;;1.40;1.00;;;26.10;54.10;;;;;;5133579;27;20498;-85
2022/05/24 08:48:53;;;;;;;1.37;1.27;;;26.20;54.20;;;;;;5127604;27;20462;-85
2022/05/24 08:51:34;;;;;;;1.67;1.30;;;26.10;54.10;;;;;;5115840;27;20418;-85
2022/05/24 08:54:06;;;;;;;1.47;1.10;;;26.10;54.10;;;;;;5114158;28;20426;-85
2022/05/24 08:56:54;;;;;;;1.90;1.23;;;26.10;54.10;;;;;;5133459;27;20455;-85
2022/05/24 08:59:29;;;;;;;1.60;1.30;;;26.10;54.10;;;;;;5112350;27;20932;-85
2022/05/24 09:01:56;;;;;;;1.23;1.13;;;26.10;54.10;;;;;;5097459;28;20428;-85
2022/05/24 09:04:22;;;;;;;1.20;1.10;;;26.10;54.10;;;;;;5145174;27;20433;-85
2022/05/24 09:07:13;;;;;;;1.30;1.10;;;26.20;54.20;;;;;;5114093;28;20438;-85
2022/05/24 09:10:09;;;;;;;1.43;1.30;;;26.20;54.10;;;;;;5125127;27;20465;-85
2022/05/24 09:13:16;;;;;;;1.93;1.10;;;26.20;54.10;;;;;;5138673;27;20421;-85
2022/05/24 09:15:50;;;;;;;1.50;1.30;;;26.10;54.10;;;;;;5132209;27;20429;-84
2022/05/24 09:18:54;;;;;;;1.23;1.00;;;26.10;54.10;;;;;;5113176;27;20422;-84
2022/05/24 09:21:31;;;;;;;1.00;0.90;;;26.10;54.10;;;;;;5115031;27;20445;-85
2022/05/24 09:24:07;;;;;;;1.20;1.10;;;26.10;54.10;;;;;;5115121;28;20414;-84
2022/05/24 09:26:34;;;;;;;1.37;1.17;;;26.10;54.10;;;;;;5132227;27;20403;-84
2022/05/24 09:29:12;;;;;;;5.43;1.17;;;26.10;54.70;;;;;;5115174;28;20454;-84
2022/05/24 09:31:49;;;;;;;1.80;1.20;;;26.10;54.10;;;;;;5127448;27;20415;-84
2022/05/24 09:34:17;;;;;;;1.60;1.30;;;26.20;54.20;;;;;;5132803;27;20414;-84
2022/05/24 09:36:55;;;;;;;1.60;1.50;;;26.20;54.20;;;;;;5114446;28;20442;-84
2022/05/24 09:42:43;;;;;;;1.40;1.13;;;26.20;54.20;;;;;;5124222;28;20410;-84
2022/05/24 09:45:27;;;;;;;2.70;1.40;;;26.10;54.30;;;;;;5113604;28;20411;-84
2022/05/24 09:48:01;;;;;;;1.40;1.30;;;26.20;54.30;;;;;;5112701;28;20469;-84
2022/05/24 09:50:36;;;;;;;1.10;1.00;;;26.20;54.30;;;;;;5142222;27;20465;-84
2022/05/24 09:53:15;;;;;;;1.93;1.10;;;26.20;54.40;;;;;;5131469;27;20420;-84
2022/05/24 09:56:01;;;;;;;1.40;1.20;;;26.20;54.40;;;;;;5129653;28;20764;-85
2022/05/24 09:58:54;;;;;;;1.20;1.00;;;26.20;54.40;;;;;;5112022;28;20447;-85
2022/05/24 10:01:36;;;;;;;1.23;1.13;;;26.20;54.40;;;;;;5114644;28;20403;-83
2022/05/24 10:04:17;;;;;;;1.47;1.30;;;26.20;54.40;;;;;;5110612;28;20415;-83
2022/05/24 10:06:57;;;;;;;1.20;1.10;;;26.20;54.40;;;;;;5113950;28;20411;-84
2022/05/24 10:09:48;;;;;;;1.30;1.17;;;26.20;54.40;;;;;;5129405;28;20446;-83
2022/05/24 10:12:34;;;;;;;1.63;1.53;;;26.20;54.40;;;;;;5107497;28;20424;-83
2022/05/24 10:15:20;;;;;;;1.30;1.20;;;26.20;54.40;;;;;;5124106;28;20510;-83
2022/05/24 10:18:40;;;;;;;3.20;1.10;;;26.20;54.40;;;;;;5112836;28;20439;-83
2022/05/24 10:21:32;;;;;;;1.23;1.00;;;26.30;54.40;;;;;;5037614;28;20423;-84
2022/05/24 10:24:15;;;;;;;1.20;1.03;;;26.20;54.40;;;;;;5017313;28;20423;-83
2022/05/24 10:26:47;;;;;;;2.40;1.53;;;26.20;54.40;;;;;;5038344;28;20430;-83
2022/05/24 10:29:53;;;;;;;1.43;1.07;;;26.20;54.40;;;;;;5024390;28;20477;-83
2022/05/24 10:39:14;;;;;;;1.40;1.20;;;26.30;54.50;;;;;;5033630;28;20418;-83
2022/05/24 10:42:05;;;;;;;2.27;1.20;;;26.30;54.50;;;;;;5016078;28;20430;-83
2022/05/24 10:44:31;;;;;;;1.50;1.20;;;26.20;54.40;;;;;;5039308;28;20410;-83
2022/05/24 10:47:15;;;;;;;1.20;1.10;;;26.30;54.50;;;;;;5036817;28;20419;-83
2022/05/24 10:49:56;;;;;;;1.60;1.30;;;26.30;54.40;;;;;;5014756;28;20204;-83
2022/05/24 10:52:34;;;;;;;4.23;1.30;;;26.30;54.40;;;;;;5046128;28;20449;-83
2022/05/24 10:55:31;;;;;;;2.00;1.23;;;26.30;54.40;;;;;;5095961;28;20530;-83
2022/05/24 10:58:02;;;;;;;2.13;1.20;;;26.30;54.40;;;;;;5130563;28;20423;-83
2022/05/24 11:00:43;;;;;;;1.80;1.10;;;26.30;54.40;;;;;;5111000;28;20432;-83
2022/05/24 11:03:14;;;;;;;1.77;1.33;;;26.30;54.40;;;;;;5127587;28;20451;-83
2022/05/24 11:05:57;;;;;;;2.60;1.70;;;26.30;54.40;;;;;;5106502;28;20438;-83
2022/05/24 11:08:49;;;;;;;2.83;1.80;;;26.30;54.40;;;;;;5108993;28;20415;-83
2022/05/24 11:11:40;;;;;;;3.60;2.87;;;26.30;54.30;;;;;;5112939;28;20442;-83
2022/05/24 11:14:13;;;;;;;9.80;3.27;;;26.40;54.40;;;;;;5129016;28;20407;-83
2022/05/24 11:16:46;;;;;;;10.27;5.33;;;26.40;54.40;;;;;;5130795;28;20403;-83
2022/05/24 11:19:39;;;;;;;9.80;5.10;;;26.30;54.30;;;;;;5109543;28;20422;-83
2022/05/24 11:22:38;;;;;;;;;;;;;;;;;;;;;
2022/05/24 11:25:27;;;;;;;15.13;6.50;;;26.40;54.40;;;;;;5044808;28;20422;-83
2022/05/24 11:28:03;;;;;;;14.20;7.87;;;26.30;54.30;;;;;;5040423;28;20482;-83
2022/05/24 11:30:31;;;;;;;13.20;7.70;;;26.30;54.30;;;;;;5020073;28;20557;-82
2022/05/24 11:33:10;;;;;;;17.40;8.07;;;26.30;54.90;;;;;;5026835;28;20430;-83
2022/05/24 11:35:54;;;;;;;17.43;8.27;;;26.30;54.30;;;;;;5041659;28;20450;-83
2022/05/24 11:38:43;;;;;;;14.23;8.63;;;26.40;54.40;;;;;;5038886;28;20406;-83
2022/05/24 11:41:35;;;;;;;19.33;9.07;;;26.40;54.40;;;;;;4986702;28;20417;-83
2022/05/24 11:44:05;;;;;;;18.00;9.90;;;26.40;54.40;;;;;;4953911;28;20522;-83
2022/05/24 11:46:34;;;;;;;19.00;8.60;;;26.40;54.40;;;;;;4971272;28;20433;-84
2022/05/24 11:49:27;;;;;;;19.80;10.60;;;26.40;54.40;;;;;;4979233;28;20473;-84
2022/05/24 11:51:58;;;;;;;17.87;10.30;;;26.40;54.40;;;;;;4945767;28;20576;-85
2022/05/24 11:54:23;;;;;;;17.07;9.87;;;26.40;54.40;;;;;;4960236;28;20437;-83
2022/05/24 11:57:01;;;;;;;20.73;12.03;;;26.40;54.40;;;;;;4973811;28;20438;-84
2022/05/24 11:59:48;;;;;;;17.73;11.27;;;26.40;54.30;;;;;;4949134;28;20194;-83
2022/05/24 12:02:19;;;;;;;14.17;9.57;;;26.40;54.30;;;;;;4935610;29;20430;-84
2022/05/24 12:08:22;;;;;;;24.10;10.53;;;26.40;54.40;;;;;;4956964;29;20488;-84
2022/05/24 12:10:51;;;;;;;20.53;10.97;;;26.40;54.30;;;;;;4922120;29;20489;-84
2022/05/24 12:13:23;;;;;;;15.30;9.43;;;26.30;54.30;;;;;;4934844;29;20431;-84
2022/05/24 12:15:58;;;;;;;21.10;10.50;;;26.40;54.40;;;;;;4947160;29;20423;-84
2022/05/24 12:18:39;;;;;;;17.90;10.30;;;26.40;54.40;;;;;;4987758;28;20425;-85
2022/05/24 12:21:05;;;;;;;18.30;10.27;;;26.40;54.40;;;;;;5073137;28;20471;-84
2022/05/24 12:23:47;;;;;;;22.10;11.83;;;26.40;54.30;;;;;;5109563;28;20430;-84
2022/05/24 12:26:15;;;;;;;20.80;10.20;;;26.40;54.30;;;;;;5112576;28;20475;-84
2022/05/24 12:28:50;;;;;;;20.97;11.03;;;26.40;54.30;;;;;;5130688;28;20432;-83
2022/05/24 12:31:31;;;;;;;18.17;10.40;;;26.40;54.30;;;;;;5108081;28;20520;-84
2022/05/24 12:34:13;;;;;;;16.03;10.57;;;26.40;54.30;;;;;;5130489;28;20410;-83
2022/05/24 12:36:46;;;;;;;17.43;10.70;;;26.40;54.30;;;;;;5110418;28;20952;-85
2022/05/24 12:39:21;;;;;;;16.97;10.60;;;26.40;54.30;;;;;;5115595;28;20803;-84
2022/05/24 12:41:59;;;;;;;16.00;9.30;;;26.40;54.30;;;;;;5106938;28;20422;-84
2022/05/24 12:44:48;;;;;;;18.83;10.40;;;26.40;54.30;;;;;;5114775;28;20521;-84
2022/05/24 12:47:29;;;;;;;19.20;11.00;;;26.40;54.30;;;;;;5106356;27;20452;-84
2022/05/24 12:49:58;;;;;;;17.23;10.90;;;26.40;54.30;;;;;;5130124;28;20442;-84
2022/05/24 12:52:38;;;;;;;17.47;9.87;;;26.40;54.30;;;;;;5124120;28;20417;-84
2022/05/24 12:55:54;;;;;;;18.73;11.40;;;26.40;54.30;;;;;;5107934;28;20419;-84
2022/05/24 12:58:26;;;;;;;17.00;10.43;;;26.40;54.20;;;;;;5134395;28;20435;-84
2022/05/24 13:01:06;;;;;;;14.93;9.00;;;26.40;54.30;;;;;;5116534;28;20422;-84
2022/05/24 13:03:36;;;;;;;15.10;8.80;;;26.40;54.20;;;;;;5109564;28;20414;-83
2022/05/24 13:06:05;;;;;;;14.90;9.90;;;26.40;54.20;;;;;;5115618;28;20485;-84
2022/05/24 13:08:31;;;;;;;15.40;9.30;;;26.40;54.10;;;;;;5115229;28;20414;-84
2022/05/24 13:10:59;;;;;;;14.57;8.53;;;26.40;54.10;;;;;;5115824;28;20939;-84
2022/05/24 13:13:29;;;;;;;12.47;7.83;;;26.40;54.10;;;;;;5116138;28;20522;-83
2022/05/24 13:16:01;;;;;;;16.10;7.60;;;26.40;54.00;;;;;;5133767;28;20437;-82
2022/05/24 13:18:31;;;;;;;14.50;7.70;;;26.40;54.10;;;;;;5116689;28;20431;-84
2022/05/24 13:21:08;;;;;;;12.50;8.60;;;26.40;54.00;;;;;;5116163;28;20435;-83
2022/05/24 13:23:37;;;;;;;14.03;8.03;;;26.40;54.00;;;;;;5144628;27;20448;-83
2022/05/24 13:26:09;;;;;;;9.73;7.00;;;26.40;54.00;;;;;;5137522;27;20429;-84
2022/05/24 13:28:38;;;;;;;14.20;8.03;;;26.40;54.00;;;;;;5113436;28;20423;-84
2022/05/24 13:34:26;;;;;;;9.73;6.90;;;26.40;54.00;;;;;;5132669;28;20414;-84
2022/05/24 13:36:56;;;;;;;9.30;6.67;;;26.40;54.00;;;;;;5137104;27;20506;-84
2022/05/24 13:39:26;;;;;;;14.57;7.60;;;26.30;53.90;;;;;;5134733;28;20466;-83
2022/05/24 13:42:03;;;;;;;11.23;7.33;;;26.30;53.90;;;;;;5134824;28;20483;-83
2022/05/24 13:44:32;;;;;;;11.63;6.83;;;26.30;53.90;;;;;;5112949;28;20414;-83
2022/05/24 13:47:05;;;;;;;11.73;6.30;;;26.30;53.90;;;;;;5133869;28;20406;-83
2022/05/24 13:49:32;;;;;;;13.53;6.50;;;26.30;54.00;;;;;;5128442;28;20509;-84
2022/05/24 13:52:27;;;;;;;11.80;6.47;;;26.30;54.00;;;;;;5113242;28;20435;-83
2022/05/24 13:55:14;;;;;;;11.60;7.17;;;26.30;54.00;;;;;;5128069;28;20177;-83
2022/05/24 13:58:01;;;;;;;11.87;7.00;;;26.40;54.00;;;;;;5128685;28;20435;-83
2022/05/24 14:00:35;;;;;;;9.60;6.00;;;26.30;54.00;;;;;;5128055;28;20521;-83
2022/05/24 14:03:18;;;;;;;9.93;5.40;;;26.30;54.00;;;;;;5136702;27;20398;-83
2022/05/24 14:06:06;;;;;;;8.93;5.70;;;26.30;54.00;;;;;;5112655;28;20419;-83
2022/05/24 14:08:33;;;;;;;10.13;7.17;;;26.30;54.10;;;;;;5098975;28;20418;-83
2022/05/24 14:10:59;;;;;;;10.40;6.50;;;26.30;54.10;;;;;;5117929;27;20487;-83
2022/05/24 14:13:27;;;;;;;12.40;7.10;;;26.30;54.00;;;;;;5134595;27;20403;-83
2022/05/24 14:15:53;;;;;;;10.93;6.37;;;26.30;54.00;;;;;;5146756;27;20446;-83
2022/05/24 14:18:19;;;;;;;12.60;7.10;;;26.40;54.00;;;;;;5117219;27;20399;-83
2022/05/24 14:20:46;;;;;;;9.20;5.90;;;26.40;54.00;;;;;;5116507;28;20427;-84